Latest Weather Observations for Outer Harbor (Black Pole)

IDS60901

Issued at 6:41 pm CST Monday 24 April 2017 (issued every 10 minutes, with the page automatically refreshed every 10 minutes)

About weather observations | Map of Adelaide area stations | Latest observations for Adelaide area | Other Formats
Station Details ID: 023052 Name: BLACK POLE Lat: -34.73 Lon: 138.47 Height: 6.27 m
Data from the previous 72 hours. | See also: Recent months for locations in South Australia
Date/Time
CST
Temp
°C
App
Temp
°C
Dew
Point
°C
Rel
Hum
%
Delta-T
°C
Wind Press
QNH
hPa
Press
MSL
hPa
Rain since
9am
mm
Dir  Spd
km/h
Gust
km/h
Spd
kts
Gust
kts
24/06:30pm - - - - - NNW 30 35 16 19 - - -
24/06:00pm - - - - - WNW 28 39 15 21 - - -
24/05:30pm - - - - - WNW 30 35 16 19 - - -
24/05:00pm - - - - - WNW 24 28 13 15 - - -
24/04:30pm - - - - - NW 28 32 15 17 - - -
24/04:00pm - - - - - WNW 22 28 12 15 - - -
24/03:30pm - - - - - NW 20 22 11 12 - - -
24/03:00pm - - - - - NW 19 22 10 12 - - -
24/02:30pm - - - - - NW 19 20 10 11 - - -
24/02:00pm - - - - - NW 20 26 11 14 - - -
24/01:30pm - - - - - NW 22 28 12 15 - - -
24/01:00pm - - - - - NNW 15 19 8 10 - - -
24/12:30pm - - - - - NNW 11 15 6 8 - - -
24/12:00pm - - - - - NNW 13 15 7 8 - - -
24/11:30am - - - - - NNW 15 19 8 10 - - -
24/11:00am - - - - - NNW 13 17 7 9 - - -
24/10:30am - - - - - NNE 9 11 5 6 - - -
24/10:00am - - - - - NE 11 15 6 8 - - -
24/09:30am - - - - - NNE 13 17 7 9 - - -
24/09:00am - - - - - NNE 9 15 5 8 - - -
24/08:30am - - - - - W 4 7 2 4 - - -
24/08:00am - - - - - NE 6 7 3 4 - - -
24/07:30am - - - - - N 4 6 2 3 - - -
24/07:00am - - - - - SSE 4 6 2 3 - - -
24/06:30am - - - - - SSE 6 7 3 4 - - -
24/06:00am - - - - - SE 11 13 6 7 - - -
24/05:30am - - - - - SE 9 11 5 6 - - -
24/05:00am - - - - - S 9 11 5 6 - - -
24/04:30am - - - - - S 7 9 4 5 - - -
24/04:00am - - - - - SE 7 9 4 5 - - -
24/03:30am - - - - - SE 11 13 6 7 - - -
24/03:00am - - - - - SE 13 15 7 8 - - -
24/02:30am - - - - - SE 15 17 8 9 - - -
24/02:00am - - - - - SE 11 17 6 9 - - -
24/01:30am - - - - - SE 17 24 9 13 - - -
24/01:00am - - - - - SSE 15 19 8 10 - - -
24/12:30am - - - - - S 17 20 9 11 - - -
24/12:00am - - - - - SSW 9 13 5 7 - - -
 
Date/Time
CST
Temp
°C
App
Temp
°C
Dew
Point
°C
Rel
Hum
%
Delta-T
°C
Wind Press
QNH
hPa
Press
MSL
hPa
Rain since
9am
mm
Dir  Spd
km/h
Gust
km/h
Spd
kts
Gust
kts
23/11:30pm - - - - - SW 13 17 7 9 - - -
23/11:00pm - - - - - W 6 7 3 4 - - -
23/10:30pm - - - - - ESE 4 7 2 4 - - -
23/10:00pm - - - - - SSE 6 7 3 4 - - -
23/09:30pm - - - - - S 4 6 2 3 - - -
23/09:00pm - - - - - SSW 9 11 5 6 - - -
23/08:30pm - - - - - WSW 9 13 5 7 - - -
23/08:00pm - - - - - S 9 9 5 5 - - -
23/07:30pm - - - - - SW 9 11 5 6 - - -
23/07:00pm - - - - - SW 7 9 4 5 - - -
23/06:30pm - - - - - SSW 7 9 4 5 - - -
23/06:00pm - - - - - W 9 11 5 6 - - -
23/05:30pm - - - - - WNW 11 13 6 7 - - -
23/05:00pm - - - - - SE 7 11 4 6 - - -
23/04:30pm - - - - - SSE 11 15 6 8 - - -
23/04:00pm - - - - - S 17 20 9 11 - - -
23/03:30pm - - - - - S 19 20 10 11 - - -
23/03:00pm - - - - - S 20 22 11 12 - - -
23/02:30pm - - - - - S 19 20 10 11 - - -
23/02:00pm - - - - - SSW 13 15 7 8 - - -
23/01:30pm - - - - - SSW 13 15 7 8 - - -
23/01:00pm - - - - - SSW 11 13 6 7 - - -
23/12:30pm - - - - - SW 11 15 6 8 - - -
23/12:00pm - - - - - SW 11 13 6 7 - - -
23/11:30am - - - - - WSW 7 9 4 5 - - -
23/11:00am - - - - - SSE 2 6 1 3 - - -
23/10:30am - - - - - SE 7 9 4 5 - - -
23/10:00am - - - - - ESE 11 13 6 7 - - -
23/09:30am - - - - - E 11 13 6 7 - - -
23/09:00am - - - - - ESE 9 11 5 6 - - -
23/08:30am - - - - - SE 6 7 3 4 - - -
23/08:00am - - - - - S 2 4 1 2 - - -
23/07:30am - - - - - SSE 4 6 2 3 - - -
23/07:00am - - - - - S 4 6 2 3 - - -
23/06:30am - - - - - NNE 4 6 2 3 - - -
23/06:00am - - - - - ENE 4 6 2 3 - - -
23/05:30am - - - - - NNE 6 6 3 3 - - -
23/05:00am - - - - - ENE 4 6 2 3 - - -
23/04:30am - - - - - NE 6 9 3 5 - - -
23/04:00am - - - - - ENE 9 13 5 7 - - -
23/03:30am - - - - - NE 9 13 5 7 - - -
23/03:00am - - - - - ENE 11 13 6 7 - - -
23/02:30am - - - - - E 11 15 6 8 - - -
23/02:00am - - - - - ESE 6 6 3 3 - - -
23/01:30am - - - - - SSE 7 9 4 5 - - -
23/01:00am - - - - - SE 6 9 3 5 - - -
23/12:30am - - - - - ESE 7 9 4 5 - - -
23/12:00am - - - - - ESE 9 11 5 6 - - -
 
Date/Time
CST
Temp
°C
App
Temp
°C
Dew
Point
°C
Rel
Hum
%
Delta-T
°C
Wind Press
QNH
hPa
Press
MSL
hPa
Rain since
9am
mm
Dir  Spd
km/h
Gust
km/h
Spd
kts
Gust
kts
22/11:30pm - - - - - ESE 13 15 7 8 - - -
22/11:00pm - - - - - SE 9 11 5 6 - - -
22/10:30pm - - - - - SE 15 17 8 9 - - -
22/10:00pm - - - - - SE 17 20 9 11 - - -
22/09:30pm - - - - - SE 11 15 6 8 - - -
22/09:00pm - - - - - ESE 15 17 8 9 - - -
22/08:30pm - - - - - E 15 17 8 9 - - -
22/08:00pm - - - - - ESE 19 22 10 12 - - -
22/07:30pm - - - - - ESE 20 26 11 14 - - -
22/07:00pm - - - - - SE 11 15 6 8 - - -
22/06:30pm - - - - - S 15 17 8 9 - - -
22/06:00pm - - - - - S 20 22 11 12 - - -
22/05:30pm - - - - - SSW 20 24 11 13 - - -
22/05:00pm - - - - - S 24 28 13 15 - - -
22/04:30pm - - - - - SSW 22 26 12 14 - - -
22/04:00pm - - - - - SSW 22 24 12 13 - - -
22/03:30pm - - - - - SSW 19 20 10 11 - - -
22/03:00pm - - - - - SSW 19 20 10 11 - - -
22/02:30pm - - - - - S 17 19 9 10 - - -
22/02:00pm - - - - - SSW 17 19 9 10 - - -
22/01:30pm - - - - - SSW 19 20 10 11 - - -
22/01:00pm - - - - - SW 17 19 9 10 - - -
22/12:30pm - - - - - WSW 15 17 8 9 - - -
22/12:00pm - - - - - WSW 11 13 6 7 - - -
22/11:30am - - - - - SW 7 11 4 6 - - -
22/11:00am - - - - - N 2 2 1 1 - - -
22/10:30am - - - - - CALM 0 0 0 0 - - -
22/10:00am - - - - - NE 2 7 1 4 - - -
22/09:30am - - - - - E 2 6 1 3 - - -
22/09:00am - - - - - NNE 6 9 3 5 - - -
22/08:30am - - - - - NE 6 9 3 5 - - -
22/08:00am - - - - - ESE 4 6 2 3 - - -
22/07:30am - - - - - ENE 4 7 2 4 - - -
22/07:00am - - - - - NE 6 9 3 5 - - -
22/06:30am - - - - - ENE 6 9 3 5 - - -
22/06:00am - - - - - E 6 7 3 4 - - -
22/05:30am - - - - - ENE 7 9 4 5 - - -
22/05:00am - - - - - E 6 6 3 3 - - -
22/04:30am - - - - - ENE 6 7 3 4 - - -
22/04:00am - - - - - E 6 7 3 4 - - -
22/03:30am - - - - - ENE 7 9 4 5 - - -
22/03:00am - - - - - ENE 7 9 4 5 - - -
22/02:30am - - - - - NE 9 11 5 6 - - -
22/02:00am - - - - - NE 11 13 6 7 - - -
22/01:30am - - - - - NE 9 11 5 6 - - -
22/01:00am - - - - - NE 13 17 7 9 - - -
22/12:30am - - - - - ESE 11 13 6 7 - - -
22/12:00am - - - - - SE 6 7 3 4 - - -
 
Date/Time
CST
Temp
°C
App
Temp
°C
Dew
Point
°C
Rel
Hum
%
Delta-T
°C
Wind Press
QNH
hPa
Press
MSL
hPa
Rain since
9am
mm
Dir  Spd
km/h
Gust
km/h
Spd
kts
Gust
kts
21/11:30pm - - - - - SE 9 9 5 5 - - -
21/11:00pm - - - - - SSE 9 11 5 6 - - -
21/10:30pm - - - - - SSE 9 11 5 6 - - -
21/10:00pm - - - - - SE 9 9 5 5 - - -
21/09:30pm - - - - - SSE 11 15 6 8 - - -
21/09:00pm - - - - - S 17 19 9 10 - - -
21/08:30pm - - - - - SSW 17 19 9 10 - - -
21/08:00pm - - - - - SSW 19 20 10 11 - - -
21/07:30pm - - - - - S 9 9 5 5 - - -
21/07:00pm - - - - - S 9 11 5 6 - - -

Latest Capital City Observations: Canberra | Sydney | Melbourne | Brisbane | Adelaide | Perth | Hobart | Darwin

Other Formats:

Comma delimited format used in spreadsheet applications
http://www.bom.gov.au/fwo/IDS60901/IDS60901.95675.axf

JavaScript Object Notation format (JSON) in row-major order
http://www.bom.gov.au/fwo/IDS60901/IDS60901.95675.json